Elroy, Wisconsin
Current Conditions -  °F | °C
As of 3:58 PM on Friday 31 Oct 2014 (Local Time) from KVOK Reporting Station
Clear Clear  
Wind Chill:   Ceiling: Unl
Heat Index:   Visibility: 10mi
Dew Point: -8°   Wind: 9mph
Humidity: 43%   Direction: 20°NNE
Pressure: 30.41"   Gusts: 22mph
Location:  43.74°N, 90.27°W
Report Text: KVOK 312058Z AUTO 02008G19KT 10SM CLR 04/M08 A3041 RMK AO2 SLP311 T00361081 55000
Loading
Personal Weather Stations






























Interactive Weather Map
Tropical Storm Tracking
New forecast layout! Learn more

10-Day Weather Forecast

Advertisements
Track Severe Weather on mobile